Cygnet Bay, Australia
Current Conditions -  °F | °C
As of 8:00 PM on Thursday 29 Jan 2015 (Local Time) from YBRM Reporting Station
Scattered Clouds Scattered Clouds  
Wind Chill: 84°   Ceiling: Unl
Heat Index: 91°   Visibility: 6mi
Dew Point: 73°   Wind: 8mph
Humidity: 70%   Direction: 280°W
Pressure: 29.71"   Gusts: NA
Location:  16.44°S, 123.01°E
Report Text: YBRM 291200Z AUTO 28007KT 9999 // SCT028 29/23 Q1006
Loading
Personal Weather Stations






























Interactive Weather Map New forecast layout! Learn more

10-Day Weather Forecast

Advertisements
Track Severe Weather on mobile